KHQM

Bowerman Airport

Hoquiam, Washington, USA
METAR KHQM 231153Z AUTO 17005KT 6SM BR OVC008 11/10 A2988 RMK AO2 CIG 006V012 SLP122 T01060100 10106 20089 58004
Observed Flight Rules
Oct-23 @ 11:53 UTC (43 minutes ago) Instrument Flight Rules
Wind Visibility Clouds Conditions
170° at 5 knots 6 miles
  • Overcast at 800' AGL
  • Mist
Temperatures Readings
Current 11°C / 52°F
Dewpoint 10°C / 50°F
Humidity 94%
Altimeter 29.88" Hg
Pressure 1012.2 hPa
Elevation 7
METAR KHQM 231153Z AUTO 17005KT 6SM BR OVC008 11/10 A2988 RMK AO2 CIG 006V012 SLP122 T01060100 10106 20089 58004
Observed Flight Rules
Oct-23 @ 11:53 UTC
(43 minutes ago)
IFR
Wind Visibility
170° at 5 knots 6 miles
Clouds
  • Overcast at 800' AGL
Conditions
  • Mist
Temperature Dewpoint
11°C / 52°F 10°C / 50°F
Humidity Altimeter Pressure
94% 29.88" Hg 1012.2 hPa